createdAt,value
2023-01-26T00:01:09.737Z,77.80
2023-01-26T00:03:57.992Z,67.95
2023-01-26T00:06:45.457Z,62.50
2023-01-26T00:09:33.018Z,64.93
2023-01-26T00:12:22.095Z,62.25
2023-01-26T00:15:10.155Z,49.97
2023-01-26T00:17:57.583Z,53.50
2023-01-26T00:20:45.088Z,46.25
2023-01-26T00:23:34.689Z,48.33
2023-01-26T00:26:24.206Z,45.53
2023-01-26T00:29:12.978Z,46.90
2023-01-26T00:32:00.537Z,43.10
2023-01-26T00:34:48.145Z,45.53
2023-01-26T00:37:35.933Z,42.97
2023-01-26T00:40:23.533Z,48.42
2023-01-26T00:43:12.964Z,43.97
2023-01-26T00:46:02.033Z,39.25
2023-01-26T00:48:49.604Z,42.60
2023-01-26T00:51:37.634Z,40.30
2023-01-26T00:54:25.341Z,42.92
2023-01-26T00:57:13.532Z,48.95
2023-01-26T01:00:02.871Z,41.75
2023-01-26T01:02:52.990Z,42.67
2023-01-26T01:05:40.820Z,48.85
2023-01-26T01:08:28.203Z,48.40
2023-01-26T01:11:15.881Z,51.13
2023-01-26T01:14:03.623Z,48.03
2023-01-26T01:16:50.872Z,56.55
2023-01-26T01:19:40.265Z,59.95
2023-01-26T01:22:27.931Z,62.45
2023-01-26T01:25:17.456Z,53.17
2023-01-26T01:28:05.084Z,47.75
2023-01-26T01:30:52.613Z,48.63
2023-01-26T01:33:40.939Z,59.28
2023-01-26T01:36:31.388Z,54.65
2023-01-26T01:39:19.305Z,58.75
2023-01-26T01:42:06.883Z,51.88
2023-01-26T01:45:34.067Z,62.70
2023-01-26T01:48:25.776Z,61.15
2023-01-26T01:51:19.670Z,61.08
2023-01-26T01:54:11.875Z,54.47
2023-01-26T01:57:03.915Z,57.47
2023-01-26T01:59:59.493Z,56.17
2023-01-26T02:03:10.153Z,57.80
2023-01-26T02:06:03.011Z,63.88
2023-01-26T02:08:52.898Z,68.28
2023-01-26T02:11:45.020Z,61.38
2023-01-26T02:14:34.193Z,67.93
2023-01-26T02:17:22.074Z,63.75
2023-01-26T02:20:17.981Z,67.47
2023-01-26T02:23:17.257Z,63.17
2023-01-26T02:26:09.144Z,65.25
2023-01-26T02:28:57.760Z,63.28
2023-01-26T02:31:46.808Z,68.57
2023-01-26T02:34:34.683Z,74.53
2023-01-26T02:37:22.987Z,80.82
2023-01-26T02:40:17.377Z,62.80
2023-01-26T02:43:05.710Z,54.67
2023-01-26T02:45:53.436Z,62.05
2023-01-26T02:48:59.823Z,66.20
2023-01-26T02:51:47.496Z,64.05
2023-01-26T02:54:53.331Z,66.07
2023-01-26T02:57:41.214Z,62.22
2023-01-26T03:00:32.207Z,65.70
2023-01-26T03:03:23.293Z,63.08
2023-01-26T03:06:12.008Z,59.28
2023-01-26T03:08:59.767Z,70.53
2023-01-26T03:11:47.310Z,57.92
2023-01-26T03:14:36.895Z,64.03
2023-01-26T03:17:25.976Z,59.45
2023-01-26T03:20:30.906Z,64.53
2023-01-26T03:23:35.970Z,67.90
2023-01-26T03:26:41.867Z,62.30
2023-01-26T03:29:29.735Z,64.07
2023-01-26T03:32:20.223Z,59.97
2023-01-26T03:35:15.078Z,70.43
2023-01-26T03:38:03.447Z,64.80
2023-01-26T03:41:20.044Z,75.63
2023-01-26T03:44:25.058Z,73.00
2023-01-26T03:47:30.512Z,75.97
2023-01-26T03:50:36.876Z,90.10
2023-01-26T03:53:43.645Z,88.70
2023-01-26T03:56:33.632Z,98.57
2023-01-26T03:59:38.737Z,87.97
2023-01-26T04:02:47.509Z,103.60
2023-01-26T04:05:53.862Z,96.25
2023-01-26T04:08:41.392Z,93.88
2023-01-26T04:11:29.716Z,85.13
2023-01-26T04:14:49.540Z,85.53
2023-01-26T04:17:58.930Z,87.57
2023-01-26T04:21:05.857Z,94.32
2023-01-26T04:23:56.569Z,87.28
2023-01-26T04:26:45.569Z,96.53
2023-01-26T04:29:37.712Z,99.88
2023-01-26T04:32:27.163Z,105.15
2023-01-26T04:35:14.813Z,92.70
2023-01-26T04:38:05.285Z,77.63
2023-01-26T04:40:54.842Z,74.70
2023-01-26T04:43:43.138Z,77.13
2023-01-26T04:46:30.908Z,64.60
2023-01-26T04:49:19.219Z,83.40
2023-01-26T04:52:07.090Z,70.90
2023-01-26T04:54:56.993Z,65.47
2023-01-26T04:57:44.511Z,62.00
2023-01-26T05:00:32.064Z,86.45
2023-01-26T05:03:20.971Z,61.42
2023-01-26T05:06:08.730Z,71.82
2023-01-26T05:08:56.557Z,68.95
2023-01-26T05:11:46.335Z,68.72
2023-01-26T05:14:52.296Z,68.78
2023-01-26T05:17:50.574Z,59.78
2023-01-26T05:20:54.865Z,62.97
2023-01-26T05:23:53.274Z,64.22
2023-01-26T05:27:12.958Z,68.15
2023-01-26T05:30:01.417Z,67.78
2023-01-26T05:32:51.797Z,69.00
2023-01-26T05:35:39.230Z,87.20
2023-01-26T05:38:29.254Z,70.18
2023-01-26T05:41:17.975Z,71.93
2023-01-26T05:44:29.997Z,56.15
2023-01-26T05:47:28.042Z,63.85
2023-01-26T05:50:18.516Z,67.80
2023-01-26T05:53:26.346Z,63.03
2023-01-26T05:56:14.573Z,51.90
2023-01-26T05:59:07.460Z,66.78
2023-01-26T06:01:57.392Z,61.05
2023-01-26T06:04:46.439Z,65.63
2023-01-26T06:07:34.262Z,55.08
2023-01-26T06:10:35.353Z,64.63
2023-01-26T06:13:41.681Z,61.67
2023-01-26T06:16:43.863Z,51.60
2023-01-26T06:19:33.303Z,53.92
2023-01-26T06:22:22.850Z,53.78
2023-01-26T06:25:12.160Z,55.25
2023-01-26T06:27:59.876Z,60.42
2023-01-26T06:30:48.979Z,58.40
2023-01-26T06:33:38.744Z,56.45
2023-01-26T06:36:29.613Z,60.20
2023-01-26T06:39:18.316Z,49.95
2023-01-26T06:42:06.099Z,49.03
2023-01-26T06:44:53.817Z,55.72
2023-01-26T06:47:47.181Z,57.03
2023-01-26T06:50:36.967Z,56.00
2023-01-26T06:53:31.467Z,58.30
2023-01-26T06:56:36.161Z,58.55
2023-01-26T06:59:40.880Z,63.67
2023-01-26T07:02:44.971Z,69.70
2023-01-26T07:05:32.447Z,72.05
2023-01-26T07:08:19.781Z,70.00
2023-01-26T07:11:09.400Z,84.47
2023-01-26T07:13:57.430Z,74.03
2023-01-26T07:16:45.278Z,69.53
2023-01-26T07:19:33.937Z,65.70
2023-01-26T07:22:21.870Z,74.55
2023-01-26T07:25:10.037Z,70.53
2023-01-26T07:28:00.614Z,68.28
2023-01-26T07:30:48.199Z,76.65
2023-01-26T07:33:36.667Z,69.78
2023-01-26T07:36:24.045Z,77.25
2023-01-26T07:39:11.952Z,86.72
2023-01-26T07:41:59.491Z,73.50
2023-01-26T07:45:09.783Z,74.80
2023-01-26T07:47:57.102Z,74.43
2023-01-26T07:50:45.358Z,70.25
2023-01-26T07:53:37.801Z,85.20
2023-01-26T07:56:25.915Z,78.30
2023-01-26T07:59:13.333Z,83.68
2023-01-26T08:02:02.722Z,68.75
2023-01-26T08:04:50.447Z,75.22
2023-01-26T08:07:38.501Z,73.85
2023-01-26T08:10:26.114Z,73.30
2023-01-26T08:13:14.571Z,87.15
2023-01-26T08:16:09.756Z,73.65
2023-01-26T08:18:59.015Z,74.28
2023-01-26T08:21:46.806Z,65.15
2023-01-26T08:24:34.293Z,68.28
2023-01-26T08:27:23.148Z,60.78
2023-01-26T08:30:12.050Z,68.82
2023-01-26T08:32:59.932Z,63.90
2023-01-26T08:35:49.052Z,61.85
2023-01-26T08:38:36.693Z,64.45
2023-01-26T08:41:24.587Z,71.68
2023-01-26T08:44:12.330Z,63.13
2023-01-26T08:47:00.096Z,60.65
2023-01-26T08:49:47.603Z,62.05
2023-01-26T08:52:36.725Z,63.78
2023-01-26T08:55:24.278Z,63.13
2023-01-26T08:58:12.027Z,59.88
2023-01-26T09:00:59.572Z,57.30
2023-01-26T09:03:46.961Z,55.20
2023-01-26T09:06:34.482Z,62.70
2023-01-26T09:09:23.594Z,54.63
2023-01-26T09:12:11.249Z,54.15
2023-01-26T09:14:58.780Z,58.35
2023-01-26T09:17:49.061Z,60.05
2023-01-26T09:20:36.623Z,53.13
2023-01-26T09:23:23.847Z,58.67
2023-01-26T09:26:12.907Z,48.45
2023-01-26T09:29:00.939Z,51.95
2023-01-26T09:31:48.394Z,52.88
2023-01-26T09:34:36.280Z,51.60
2023-01-26T09:37:23.797Z,51.60
2023-01-26T09:40:18.421Z,50.90
2023-01-26T09:43:23.316Z,52.85
2023-01-26T09:46:22.879Z,53.92
2023-01-26T09:49:15.426Z,60.08
2023-01-26T09:52:10.156Z,53.40
2023-01-26T09:55:01.397Z,51.08
2023-01-26T09:57:51.333Z,57.78
2023-01-26T10:00:44.922Z,54.78
2023-01-26T10:03:39.399Z,48.28
2023-01-26T10:06:28.711Z,47.40
2023-01-26T10:09:32.784Z,50.50
2023-01-26T10:12:25.910Z,59.75
2023-01-26T10:15:30.300Z,48.78
2023-01-26T10:18:23.729Z,52.33
2023-01-26T10:21:13.919Z,54.08
2023-01-26T10:24:03.437Z,52.00
2023-01-26T10:26:54.014Z,57.30
2023-01-26T10:29:41.570Z,48.42
2023-01-26T10:32:29.685Z,46.47
2023-01-26T10:35:22.164Z,51.78
2023-01-26T10:38:28.045Z,50.83
2023-01-26T10:41:26.004Z,54.90
2023-01-26T10:44:25.656Z,44.30
2023-01-26T10:47:17.521Z,43.15
2023-01-26T10:50:26.190Z,47.00
2023-01-26T10:53:19.606Z,43.42
2023-01-26T10:56:13.338Z,46.65
2023-01-26T10:59:08.883Z,49.70
2023-01-26T11:01:58.337Z,51.28
2023-01-26T11:05:04.046Z,46.72
2023-01-26T11:07:58.828Z,45.30
2023-01-26T11:10:53.748Z,49.92
2023-01-26T11:13:41.141Z,42.25
2023-01-26T11:16:30.077Z,45.60
2023-01-26T11:19:27.107Z,40.10
2023-01-26T11:22:19.689Z,38.25
2023-01-26T11:25:22.895Z,40.85
2023-01-26T11:28:27.121Z,39.30
2023-01-26T11:31:32.856Z,44.30
2023-01-26T11:34:31.067Z,47.83
2023-01-26T11:37:39.961Z,40.78
2023-01-26T11:40:39.097Z,39.67
2023-01-26T11:43:55.022Z,37.92
2023-01-26T11:46:55.301Z,46.20
2023-01-26T11:50:03.785Z,41.97
2023-01-26T11:53:07.919Z,46.30
2023-01-26T11:56:12.628Z,48.08
2023-01-26T11:59:05.331Z,39.95
2023-01-26T12:01:59.619Z,43.83
2023-01-26T12:04:48.159Z,45.40
2023-01-26T12:07:54.582Z,39.92
2023-01-26T12:10:48.940Z,40.60
2023-01-26T12:13:42.329Z,39.50
2023-01-26T12:16:41.899Z,42.85
2023-01-26T12:19:41.020Z,42.08
2023-01-26T12:22:34.442Z,41.22
2023-01-26T12:25:29.509Z,41.47
2023-01-26T12:28:23.190Z,40.95
2023-01-26T12:31:19.103Z,43.38
2023-01-26T12:34:13.604Z,49.17
2023-01-26T12:37:27.155Z,39.65
2023-01-26T12:40:26.826Z,42.75
2023-01-26T12:43:28.435Z,39.90
2023-01-26T12:46:18.596Z,43.78
2023-01-26T12:49:13.041Z,43.50
2023-01-26T12:52:07.669Z,46.28
2023-01-26T12:54:59.944Z,44.45
2023-01-26T12:57:53.428Z,41.33
2023-01-26T13:00:41.537Z,42.88
2023-01-26T13:03:34.905Z,45.03
2023-01-26T13:06:24.812Z,48.60
2023-01-26T13:09:24.604Z,52.00
2023-01-26T13:12:48.925Z,39.38
2023-01-26T13:15:36.557Z,41.35
2023-01-26T13:18:51.574Z,42.63
2023-01-26T13:21:48.599Z,41.88
2023-01-26T13:27:45.628Z,47.05
2023-01-26T13:30:44.628Z,38.58
2023-01-26T13:33:32.995Z,42.05
2023-01-26T13:36:24.878Z,40.40
2023-01-26T13:39:19.885Z,38.97
2023-01-26T13:42:17.413Z,42.20
2023-01-26T13:45:15.011Z,48.95
2023-01-26T13:48:05.860Z,40.97
2023-01-26T13:50:53.430Z,45.88
2023-01-26T13:53:46.426Z,50.47
2023-01-26T13:56:37.552Z,44.20
2023-01-26T13:59:25.583Z,43.60
2023-01-26T14:02:23.956Z,43.83
2023-01-26T14:05:23.358Z,51.55
2023-01-26T14:08:14.908Z,49.28
2023-01-26T14:11:06.054Z,53.35
2023-01-26T14:13:56.245Z,41.67
2023-01-26T14:16:43.870Z,47.13
2023-01-26T14:19:32.218Z,44.67
2023-01-26T14:22:21.974Z,40.38
2023-01-26T14:25:12.046Z,46.15
2023-01-26T14:28:01.091Z,37.85
2023-01-26T14:30:53.017Z,41.85
2023-01-26T14:33:40.546Z,41.95
2023-01-26T14:36:32.165Z,42.13
2023-01-26T14:39:21.000Z,45.08
2023-01-26T14:42:10.845Z,50.45
2023-01-26T14:44:59.718Z,43.65
2023-01-26T14:47:47.470Z,44.42
2023-01-26T14:50:36.051Z,48.15
2023-01-26T14:53:25.455Z,53.88
2023-01-26T14:56:19.965Z,46.25
2023-01-26T14:59:09.625Z,41.88
2023-01-26T15:02:14.738Z,43.72
2023-01-26T15:05:05.751Z,50.22
2023-01-26T15:07:57.739Z,40.00
2023-01-26T15:10:55.098Z,47.17
2023-01-26T15:13:45.054Z,42.88
2023-01-26T15:16:52.099Z,46.83
2023-01-26T15:19:43.886Z,42.55
2023-01-26T15:22:32.601Z,39.72
2023-01-26T15:25:22.454Z,45.10
2023-01-26T15:28:18.483Z,44.70
2023-01-26T15:31:06.591Z,46.42
2023-01-26T15:33:55.808Z,45.42
2023-01-26T15:36:52.249Z,45.25
2023-01-26T15:39:39.978Z,48.28
2023-01-26T15:42:30.305Z,48.10
2023-01-26T15:45:24.692Z,47.20
2023-01-26T15:48:12.405Z,46.28
2023-01-26T15:51:00.050Z,40.90
2023-01-26T15:53:49.274Z,46.60
2023-01-26T15:56:36.814Z,53.20
2023-01-26T15:59:24.189Z,44.83
2023-01-26T16:02:15.195Z,53.15
2023-01-26T16:05:02.369Z,45.80
2023-01-26T16:07:52.159Z,48.42
2023-01-26T16:10:41.092Z,69.43
2023-01-26T16:13:28.578Z,64.78
2023-01-26T16:16:17.772Z,63.83
2023-01-26T16:19:05.423Z,58.58
2023-01-26T16:21:53.202Z,69.43
2023-01-26T16:24:42.709Z,63.42
2023-01-26T16:27:31.842Z,63.30
2023-01-26T16:30:20.225Z,63.95
2023-01-26T16:33:07.780Z,58.00
2023-01-26T16:35:55.659Z,56.65
2023-01-26T16:38:44.029Z,51.50
2023-01-26T16:41:33.726Z,53.33
2023-01-26T16:44:24.368Z,58.65
2023-01-26T16:47:12.229Z,60.05
2023-01-26T16:50:00.036Z,58.10
2023-01-26T16:52:48.110Z,59.63
2023-01-26T16:55:35.684Z,63.78
2023-01-26T16:58:26.445Z,67.40
2023-01-26T17:01:25.357Z,61.47
2023-01-26T17:04:13.060Z,58.33
2023-01-26T17:07:00.338Z,58.83
2023-01-26T17:09:47.782Z,65.07
2023-01-26T17:12:35.573Z,56.08
2023-01-26T17:15:24.599Z,58.80
2023-01-26T17:18:14.346Z,61.30
2023-01-26T17:21:05.939Z,60.47
2023-01-26T17:23:56.039Z,63.22
2023-01-26T17:26:43.630Z,59.65
2023-01-26T17:29:31.573Z,54.33
2023-01-26T17:32:25.131Z,54.85
2023-01-26T17:35:14.360Z,57.83
2023-01-26T17:38:02.025Z,59.20
2023-01-26T17:40:55.918Z,58.75
2023-01-26T17:43:43.635Z,53.85
2023-01-26T17:46:31.411Z,55.60
2023-01-26T17:49:21.532Z,52.33
2023-01-26T17:52:12.440Z,54.70
2023-01-26T17:55:00.417Z,54.45
2023-01-26T17:57:47.916Z,69.57
2023-01-26T18:00:35.440Z,54.08
2023-01-26T18:03:26.362Z,71.25
2023-01-26T18:06:13.939Z,67.28
2023-01-26T18:09:03.029Z,73.57
2023-01-26T18:11:50.464Z,73.18
2023-01-26T18:14:37.944Z,74.45
2023-01-26T18:17:25.992Z,82.85
2023-01-26T18:20:15.186Z,71.75
2023-01-26T18:23:02.809Z,75.15
2023-01-26T18:25:52.719Z,76.15
2023-01-26T18:28:42.019Z,95.32
2023-01-26T18:31:31.279Z,81.72
2023-01-26T18:34:19.042Z,83.55
2023-01-26T18:37:06.716Z,79.40
2023-01-26T18:39:54.187Z,75.65
2023-01-26T18:42:43.252Z,77.05
2023-01-26T18:45:30.919Z,95.95
2023-01-26T18:48:18.409Z,92.07
2023-01-26T18:51:06.744Z,91.45
2023-01-26T18:53:54.659Z,91.57
2023-01-26T18:56:42.288Z,83.03
2023-01-26T18:59:31.425Z,70.57
2023-01-26T19:02:19.097Z,73.43
2023-01-26T19:05:08.034Z,63.53
2023-01-26T19:07:55.997Z,61.20
2023-01-26T19:10:43.540Z,56.15
2023-01-26T19:13:30.917Z,65.47
2023-01-26T19:16:19.935Z,62.80
2023-01-26T19:19:07.814Z,63.53
2023-01-26T19:21:55.729Z,70.57
2023-01-26T19:24:43.245Z,77.30
2023-01-26T19:27:32.014Z,63.90
2023-01-26T19:30:20.122Z,70.90
2023-01-26T19:33:29.069Z,67.57
2023-01-26T19:36:16.638Z,82.05
2023-01-26T19:39:04.891Z,66.85
2023-01-26T19:41:52.644Z,78.65
2023-01-26T19:44:40.349Z,60.47
2023-01-26T19:47:27.808Z,64.13
2023-01-26T19:50:17.539Z,52.90
2023-01-26T19:53:07.574Z,59.70
2023-01-26T19:55:55.214Z,59.65
2023-01-26T19:58:42.621Z,52.75
2023-01-26T20:01:31.382Z,58.83
2023-01-26T20:04:19.162Z,45.65
2023-01-26T20:07:08.322Z,55.65
2023-01-26T20:09:55.739Z,54.10
2023-01-26T20:12:43.160Z,63.80
2023-01-26T20:15:30.800Z,56.70
2023-01-26T20:18:18.733Z,60.08
2023-01-26T20:21:07.858Z,61.08
2023-01-26T20:23:56.806Z,62.20
2023-01-26T20:26:44.702Z,58.15
2023-01-26T20:29:32.652Z,65.15
2023-01-26T20:32:20.526Z,68.43
2023-01-26T20:35:09.749Z,72.32
2023-01-26T20:37:57.348Z,61.17
2023-01-26T20:40:46.229Z,54.95
2023-01-26T20:43:33.974Z,67.15
2023-01-26T20:46:21.685Z,84.97
2023-01-26T20:49:12.880Z,71.28
2023-01-26T20:52:00.513Z,76.45
2023-01-26T20:54:48.137Z,64.65
2023-01-26T20:57:37.101Z,72.63
2023-01-26T21:00:24.767Z,81.60
2023-01-26T21:03:12.471Z,75.95
2023-01-26T21:06:00.000Z,81.20
2023-01-26T21:08:48.065Z,75.90
2023-01-26T21:11:36.512Z,76.53
2023-01-26T21:14:25.417Z,81.88
2023-01-26T21:17:13.138Z,71.43
2023-01-26T21:20:00.728Z,78.57
2023-01-26T21:22:48.261Z,79.68
2023-01-26T21:25:35.726Z,78.25
2023-01-26T21:28:23.129Z,72.18
2023-01-26T21:31:14.872Z,83.13
2023-01-26T21:34:02.657Z,82.03
2023-01-26T21:36:49.999Z,87.65
2023-01-26T21:39:37.366Z,78.65
2023-01-26T21:42:25.105Z,78.38
2023-01-26T21:45:30.633Z,75.18
2023-01-26T21:48:38.031Z,81.03
2023-01-26T21:51:43.611Z,82.70
2023-01-26T21:54:31.750Z,82.05
2023-01-26T21:57:36.403Z,77.97
2023-01-26T22:00:23.972Z,83.93
2023-01-26T22:03:12.101Z,98.40
2023-01-26T22:06:01.371Z,78.57
2023-01-26T22:08:49.140Z,83.90
2023-01-26T22:11:37.674Z,79.85
2023-01-26T22:14:26.928Z,88.10
2023-01-26T22:17:14.633Z,92.20
2023-01-26T22:20:02.409Z,97.20
2023-01-26T22:22:51.647Z,94.55
2023-01-26T22:25:40.049Z,83.88
2023-01-26T22:28:27.873Z,87.28
2023-01-26T22:31:15.592Z,85.55
2023-01-26T22:34:03.302Z,85.43
2023-01-26T22:36:50.782Z,97.60
2023-01-26T22:39:39.737Z,93.90
2023-01-26T22:42:27.335Z,88.15
2023-01-26T22:45:15.522Z,83.18
2023-01-26T22:48:03.640Z,94.75
2023-01-26T22:50:51.072Z,93.60
2023-01-26T22:53:38.935Z,107.70
2023-01-26T22:56:28.180Z,81.57
2023-01-26T22:59:16.200Z,83.78
2023-01-26T23:02:03.712Z,88.55
2023-01-26T23:04:51.058Z,91.10
2023-01-26T23:07:38.737Z,92.47
2023-01-26T23:10:26.941Z,94.82
2023-01-26T23:13:16.084Z,78.90
2023-01-26T23:16:04.265Z,94.22
2023-01-26T23:18:52.020Z,93.70
2023-01-26T23:21:39.543Z,87.30
2023-01-26T23:24:26.985Z,82.88
2023-01-26T23:27:14.353Z,87.18
2023-01-26T23:30:03.695Z,85.47
2023-01-26T23:32:51.143Z,75.82
2023-01-26T23:35:39.017Z,88.15
2023-01-26T23:38:28.749Z,90.05
2023-01-26T23:41:16.580Z,100.43
2023-01-26T23:44:04.260Z,81.55
2023-01-26T23:46:53.290Z,86.47
2023-01-26T23:49:40.944Z,84.70
2023-01-26T23:52:28.548Z,83.82
2023-01-26T23:55:16.451Z,102.82
2023-01-26T23:58:04.129Z,87.50
